sensor_id;sensor_type;location;lat;lon;timestamp;temperature;humidity
10536;DHT22;5316;49.538;8.352;2023-03-24T00:21:30;13.90;99.90
10536;DHT22;5316;49.538;8.352;2023-03-24T00:25:18;13.90;99.90
10536;DHT22;5316;49.538;8.352;2023-03-24T00:28:16;13.90;99.90
10536;DHT22;5316;49.538;8.352;2023-03-24T00:31:38;13.90;99.90
10536;DHT22;5316;49.538;8.352;2023-03-24T00:51:52;13.80;99.90
10536;DHT22;5316;49.538;8.352;2023-03-24T01:00:38;13.60;99.90
10536;DHT22;5316;49.538;8.352;2023-03-24T01:05:18;13.60;99.90
10536;DHT22;5316;49.538;8.352;2023-03-24T01:07:13;13.60;99.90
10536;DHT22;5316;49.538;8.352;2023-03-24T01:10:03;13.60;99.90
10536;DHT22;5316;49.538;8.352;2023-03-24T01:13:08;13.60;99.90
10536;DHT22;5316;49.538;8.352;2023-03-24T01:19:31;13.60;99.90
10536;DHT22;5316;49.538;8.352;2023-03-24T01:25:23;13.60;99.90
10536;DHT22;5316;49.538;8.352;2023-03-24T01:28:19;13.60;99.90
10536;DHT22;5316;49.538;8.352;2023-03-24T01:31:15;13.60;99.90
10536;DHT22;5316;49.538;8.352;2023-03-24T01:36:49;13.50;99.90
10536;DHT22;5316;49.538;8.352;2023-03-24T01:39:42;13.50;99.90
10536;DHT22;5316;49.538;8.352;2023-03-24T01:42:32;13.50;99.90
10536;DHT22;5316;49.538;8.352;2023-03-24T01:48:19;13.50;96.80
10536;DHT22;5316;49.538;8.352;2023-03-24T01:51:25;13.50;94.80
10536;DHT22;5316;49.538;8.352;2023-03-24T01:54:13;13.60;94.30
10536;DHT22;5316;49.538;8.352;2023-03-24T01:57:20;13.60;95.10
10536;DHT22;5316;49.538;8.352;2023-03-24T02:00:15;13.60;93.90
10536;DHT22;5316;49.538;8.352;2023-03-24T02:03:08;13.60;94.20
10536;DHT22;5316;49.538;8.352;2023-03-24T02:12:20;13.60;89.80
10536;DHT22;5316;49.538;8.352;2023-03-24T02:15:16;13.60;88.60
10536;DHT22;5316;49.538;8.352;2023-03-24T02:18:34;13.60;91.20
10536;DHT22;5316;49.538;8.352;2023-03-24T02:28:22;13.80;84.50
10536;DHT22;5316;49.538;8.352;2023-03-24T02:38:25;13.70;86.80
10536;DHT22;5316;49.538;8.352;2023-03-24T02:41:18;13.70;92.40
10536;DHT22;5316;49.538;8.352;2023-03-24T02:44:28;13.70;96.10
10536;DHT22;5316;49.538;8.352;2023-03-24T02:47:15;13.70;98.90
10536;DHT22;5316;49.538;8.352;2023-03-24T02:50:13;13.80;99.90
10536;DHT22;5316;49.538;8.352;2023-03-24T02:53:26;13.80;99.90
10536;DHT22;5316;49.538;8.352;2023-03-24T02:56:28;13.70;99.90
10536;DHT22;5316;49.538;8.352;2023-03-24T02:59:25;13.80;99.90
10536;DHT22;5316;49.538;8.352;2023-03-24T03:02:20;13.80;97.50
10536;DHT22;5316;49.538;8.352;2023-03-24T03:05:16;13.80;90.30
10536;DHT22;5316;49.538;8.352;2023-03-24T03:08:04;13.80;88.20
10536;DHT22;5316;49.538;8.352;2023-03-24T03:11:05;13.90;79.50
10536;DHT22;5316;49.538;8.352;2023-03-24T03:13:45;13.90;77.50
10536;DHT22;5316;49.538;8.352;2023-03-24T03:16:47;14.00;69.30
10536;DHT22;5316;49.538;8.352;2023-03-24T03:19:38;14.00;62.00
10536;DHT22;5316;49.538;8.352;2023-03-24T03:22:55;14.00;57.70
10536;DHT22;5316;49.538;8.352;2023-03-24T03:25:44;14.00;58.30
10536;DHT22;5316;49.538;8.352;2023-03-24T03:31:36;14.10;64.10
10536;DHT22;5316;49.538;8.352;2023-03-24T03:34:49;14.10;48.10
10536;DHT22;5316;49.538;8.352;2023-03-24T03:37:56;14.10;50.80
10536;DHT22;5316;49.538;8.352;2023-03-24T03:40:53;14.10;52.80
10536;DHT22;5316;49.538;8.352;2023-03-24T03:44:02;14.20;59.70
10536;DHT22;5316;49.538;8.352;2023-03-24T03:46:43;14.10;58.10
10536;DHT22;5316;49.538;8.352;2023-03-24T03:49:21;14.20;55.80
10536;DHT22;5316;49.538;8.352;2023-03-24T03:52:17;14.20;52.70
10536;DHT22;5316;49.538;8.352;2023-03-24T03:54:58;14.30;57.00
10536;DHT22;5316;49.538;8.352;2023-03-24T03:57:40;14.60;53.10
10536;DHT22;5316;49.538;8.352;2023-03-24T04:00:30;14.70;45.30
10536;DHT22;5316;49.538;8.352;2023-03-24T04:06:16;14.90;60.80
10536;DHT22;5316;49.538;8.352;2023-03-24T04:09:28;15.00;71.10
10536;DHT22;5316;49.538;8.352;2023-03-24T04:15:32;15.10;94.70
10536;DHT22;5316;49.538;8.352;2023-03-24T04:21:57;15.10;99.90
10536;DHT22;5316;49.538;8.352;2023-03-24T04:24:41;15.00;99.90
10536;DHT22;5316;49.538;8.352;2023-03-24T04:27:29;15.00;99.90
10536;DHT22;5316;49.538;8.352;2023-03-24T04:30:24;15.00;99.90
10536;DHT22;5316;49.538;8.352;2023-03-24T04:33:40;14.90;99.90
10536;DHT22;5316;49.538;8.352;2023-03-24T04:36:42;14.90;99.90
10536;DHT22;5316;49.538;8.352;2023-03-24T04:39:32;14.80;99.90
10536;DHT22;5316;49.538;8.352;2023-03-24T04:42:22;14.80;99.90
10536;DHT22;5316;49.538;8.352;2023-03-24T04:45:02;14.70;99.90
10536;DHT22;5316;49.538;8.352;2023-03-24T04:47:38;14.60;99.90
10536;DHT22;5316;49.538;8.352;2023-03-24T04:50:21;14.60;99.90
10536;DHT22;5316;49.538;8.352;2023-03-24T04:53:25;14.50;99.90
10536;DHT22;5316;49.538;8.352;2023-03-24T04:56:32;14.50;99.90
10536;DHT22;5316;49.538;8.352;2023-03-24T04:59:21;14.40;99.90
10536;DHT22;5316;49.538;8.352;2023-03-24T05:02:12;14.30;99.90
10536;DHT22;5316;49.538;8.352;2023-03-24T05:04:55;14.30;99.90
10536;DHT22;5316;49.538;8.352;2023-03-24T05:07:37;14.30;99.90
10536;DHT22;5316;49.538;8.352;2023-03-24T05:13:35;14.20;99.90
10536;DHT22;5316;49.538;8.352;2023-03-24T05:16:52;14.00;99.90
10536;DHT22;5316;49.538;8.352;2023-03-24T05:19:56;14.00;99.90
10536;DHT22;5316;49.538;8.352;2023-03-24T05:22:45;13.90;99.90
10536;DHT22;5316;49.538;8.352;2023-03-24T05:26:12;13.80;99.90
10536;DHT22;5316;49.538;8.352;2023-03-24T05:28:43;13.80;99.90
10536;DHT22;5316;49.538;8.352;2023-03-24T05:31:40;13.80;99.90
10536;DHT22;5316;49.538;8.352;2023-03-24T05:34:40;13.70;99.90
10536;DHT22;5316;49.538;8.352;2023-03-24T05:37:42;13.80;99.90
10536;DHT22;5316;49.538;8.352;2023-03-24T05:40:24;13.80;99.90
10536;DHT22;5316;49.538;8.352;2023-03-24T05:43:05;13.80;99.90
10536;DHT22;5316;49.538;8.352;2023-03-24T05:46:12;13.80;99.90
10536;DHT22;5316;49.538;8.352;2023-03-24T05:52:57;13.90;99.90
10536;DHT22;5316;49.538;8.352;2023-03-24T05:56:37;13.90;99.90
10536;DHT22;5316;49.538;8.352;2023-03-24T06:00:03;13.90;99.90
10536;DHT22;5316;49.538;8.352;2023-03-24T06:06:19;13.90;99.90
10536;DHT22;5316;49.538;8.352;2023-03-24T06:26:16;14.10;99.90
10536;DHT22;5316;49.538;8.352;2023-03-24T06:28:44;14.10;99.90
10536;DHT22;5316;49.538;8.352;2023-03-24T06:31:13;14.10;99.90
10536;DHT22;5316;49.538;8.352;2023-03-24T06:33:44;14.00;99.90
10536;DHT22;5316;49.538;8.352;2023-03-24T06:36:11;14.10;99.90
10536;DHT22;5316;49.538;8.352;2023-03-24T06:38:39;14.20;99.90
10536;DHT22;5316;49.538;8.352;2023-03-24T06:41:07;14.10;99.90
10536;DHT22;5316;49.538;8.352;2023-03-24T06:43:39;14.20;99.90
10536;DHT22;5316;49.538;8.352;2023-03-24T06:46:06;14.10;99.90
10536;DHT22;5316;49.538;8.352;2023-03-24T06:48:34;14.20;99.90
10536;DHT22;5316;49.538;8.352;2023-03-24T06:51:03;14.20;99.90
10536;DHT22;5316;49.538;8.352;2023-03-24T06:53:30;14.20;99.90
10536;DHT22;5316;49.538;8.352;2023-03-24T06:55:57;14.20;99.90
10536;DHT22;5316;49.538;8.352;2023-03-24T06:59:01;14.20;99.90
10536;DHT22;5316;49.538;8.352;2023-03-24T07:01:30;14.20;99.90
10536;DHT22;5316;49.538;8.352;2023-03-24T07:04:14;14.20;99.90
10536;DHT22;5316;49.538;8.352;2023-03-24T07:07:00;14.20;99.90
10536;DHT22;5316;49.538;8.352;2023-03-24T07:10:06;14.20;99.90
10536;DHT22;5316;49.538;8.352;2023-03-24T07:13:29;14.30;99.90
10536;DHT22;5316;49.538;8.352;2023-03-24T07:16:18;14.30;99.90
10536;DHT22;5316;49.538;8.352;2023-03-24T07:18:46;14.30;99.90
10536;DHT22;5316;49.538;8.352;2023-03-24T07:21:13;14.30;99.90
10536;DHT22;5316;49.538;8.352;2023-03-24T07:23:40;14.40;99.90
10536;DHT22;5316;49.538;8.352;2023-03-24T07:26:07;14.40;99.90
10536;DHT22;5316;49.538;8.352;2023-03-24T07:28:34;14.40;99.90
10536;DHT22;5316;49.538;8.352;2023-03-24T07:31:02;14.40;99.90
10536;DHT22;5316;49.538;8.352;2023-03-24T07:33:31;14.60;99.90
10536;DHT22;5316;49.538;8.352;2023-03-24T07:35:59;14.60;99.90
10536;DHT22;5316;49.538;8.352;2023-03-24T07:38:26;14.70;99.90
10536;DHT22;5316;49.538;8.352;2023-03-24T07:40:53;14.70;99.90
10536;DHT22;5316;49.538;8.352;2023-03-24T07:43:21;14.70;99.90
10536;DHT22;5316;49.538;8.352;2023-03-24T07:45:48;14.70;99.90
10536;DHT22;5316;49.538;8.352;2023-03-24T07:48:15;14.70;99.90
10536;DHT22;5316;49.538;8.352;2023-03-24T07:50:45;14.70;99.90
10536;DHT22;5316;49.538;8.352;2023-03-24T07:53:12;14.60;99.90
10536;DHT22;5316;49.538;8.352;2023-03-24T07:55:44;14.60;99.90
10536;DHT22;5316;49.538;8.352;2023-03-24T07:58:11;14.60;99.90
10536;DHT22;5316;49.538;8.352;2023-03-24T08:00:40;14.50;99.90
10536;DHT22;5316;49.538;8.352;2023-03-24T08:03:09;14.50;99.90
10536;DHT22;5316;49.538;8.352;2023-03-24T08:05:39;14.50;99.90
10536;DHT22;5316;49.538;8.352;2023-03-24T08:08:09;14.50;99.90
10536;DHT22;5316;49.538;8.352;2023-03-24T08:10:37;14.40;99.90
10536;DHT22;5316;49.538;8.352;2023-03-24T08:13:07;14.50;99.90
10536;DHT22;5316;49.538;8.352;2023-03-24T08:15:34;14.50;99.90
10536;DHT22;5316;49.538;8.352;2023-03-24T08:18:44;14.50;99.90
10536;DHT22;5316;49.538;8.352;2023-03-24T08:21:13;14.40;99.90
10536;DHT22;5316;49.538;8.352;2023-03-24T08:23:42;14.40;99.90
10536;DHT22;5316;49.538;8.352;2023-03-24T08:26:09;14.40;99.90
10536;DHT22;5316;49.538;8.352;2023-03-24T08:28:37;14.40;99.90
10536;DHT22;5316;49.538;8.352;2023-03-24T08:31:05;14.40;99.90
10536;DHT22;5316;49.538;8.352;2023-03-24T08:33:34;14.40;99.90
10536;DHT22;5316;49.538;8.352;2023-03-24T08:36:01;14.40;99.90
10536;DHT22;5316;49.538;8.352;2023-03-24T08:38:28;14.40;99.90
10536;DHT22;5316;49.538;8.352;2023-03-24T08:40:58;14.40;99.90
10536;DHT22;5316;49.538;8.352;2023-03-24T08:43:27;14.40;99.90
10536;DHT22;5316;49.538;8.352;2023-03-24T08:45:55;14.40;99.90
10536;DHT22;5316;49.538;8.352;2023-03-24T08:48:22;14.40;99.90
10536;DHT22;5316;49.538;8.352;2023-03-24T08:50:50;14.40;99.90
10536;DHT22;5316;49.538;8.352;2023-03-24T08:53:17;14.40;99.90
10536;DHT22;5316;49.538;8.352;2023-03-24T08:55:44;14.50;99.90
10536;DHT22;5316;49.538;8.352;2023-03-24T08:58:14;14.50;99.90
10536;DHT22;5316;49.538;8.352;2023-03-24T09:00:43;14.50;99.90
10536;DHT22;5316;49.538;8.352;2023-03-24T09:03:12;14.50;99.90
10536;DHT22;5316;49.538;8.352;2023-03-24T09:05:44;14.50;99.90
10536;DHT22;5316;49.538;8.352;2023-03-24T09:08:12;14.60;99.90
10536;DHT22;5316;49.538;8.352;2023-03-24T09:10:39;14.60;99.90
10536;DHT22;5316;49.538;8.352;2023-03-24T09:13:07;14.60;99.90
10536;DHT22;5316;49.538;8.352;2023-03-24T09:15:36;14.60;99.90
10536;DHT22;5316;49.538;8.352;2023-03-24T09:18:10;14.70;99.90
10536;DHT22;5316;49.538;8.352;2023-03-24T09:20:37;14.70;99.90
10536;DHT22;5316;49.538;8.352;2023-03-24T09:23:04;14.80;99.90
10536;DHT22;5316;49.538;8.352;2023-03-24T09:25:32;14.80;99.90
10536;DHT22;5316;49.538;8.352;2023-03-24T09:28:02;14.90;99.90
10536;DHT22;5316;49.538;8.352;2023-03-24T09:30:29;14.90;99.90
10536;DHT22;5316;49.538;8.352;2023-03-24T09:32:58;14.90;99.90
10536;DHT22;5316;49.538;8.352;2023-03-24T09:35:26;14.90;99.90
10536;DHT22;5316;49.538;8.352;2023-03-24T09:37:55;14.80;99.90
10536;DHT22;5316;49.538;8.352;2023-03-24T09:40:27;14.90;99.90
10536;DHT22;5316;49.538;8.352;2023-03-24T09:43:04;14.70;99.90
10536;DHT22;5316;49.538;8.352;2023-03-24T09:45:36;14.70;99.90
10536;DHT22;5316;49.538;8.352;2023-03-24T09:48:15;14.70;99.90
10536;DHT22;5316;49.538;8.352;2023-03-24T09:50:50;14.70;99.90
10536;DHT22;5316;49.538;8.352;2023-03-24T09:53:26;14.70;99.90
10536;DHT22;5316;49.538;8.352;2023-03-24T09:55:59;14.70;99.90
10536;DHT22;5316;49.538;8.352;2023-03-24T09:58:29;14.70;99.90
10536;DHT22;5316;49.538;8.352;2023-03-24T10:01:03;14.60;99.90
10536;DHT22;5316;49.538;8.352;2023-03-24T10:03:33;14.60;99.90
10536;DHT22;5316;49.538;8.352;2023-03-24T10:06:06;14.60;99.90
10536;DHT22;5316;49.538;8.352;2023-03-24T10:08:36;14.60;99.90
10536;DHT22;5316;49.538;8.352;2023-03-24T10:11:17;14.70;99.90
10536;DHT22;5316;49.538;8.352;2023-03-24T10:13:57;14.70;99.90
10536;DHT22;5316;49.538;8.352;2023-03-24T10:16:32;14.70;99.90
10536;DHT22;5316;49.538;8.352;2023-03-24T10:19:16;14.70;99.90
10536;DHT22;5316;49.538;8.352;2023-03-24T10:21:53;14.60;99.90
10536;DHT22;5316;49.538;8.352;2023-03-24T10:24:27;14.70;99.90
10536;DHT22;5316;49.538;8.352;2023-03-24T10:27:01;14.70;99.90
10536;DHT22;5316;49.538;8.352;2023-03-24T10:29:43;14.80;99.90
10536;DHT22;5316;49.538;8.352;2023-03-24T10:32:15;14.80;99.90
10536;DHT22;5316;49.538;8.352;2023-03-24T10:34:52;14.80;99.90
10536;DHT22;5316;49.538;8.352;2023-03-24T10:37:23;14.80;99.90
10536;DHT22;5316;49.538;8.352;2023-03-24T10:39:51;14.80;99.90
10536;DHT22;5316;49.538;8.352;2023-03-24T10:42:25;14.80;99.90
10536;DHT22;5316;49.538;8.352;2023-03-24T10:44:55;14.60;76.80
10536;DHT22;5316;49.538;8.352;2023-03-24T10:47:37;14.40;21.20
10536;DHT22;5316;49.538;8.352;2023-03-24T10:50:14;14.20;50.50
10536;DHT22;5316;49.538;8.352;2023-03-24T10:52:45;14.00;96.50
10536;DHT22;5316;49.538;8.352;2023-03-24T10:55:15;13.80;99.90
10536;DHT22;5316;49.538;8.352;2023-03-24T10:57:44;13.60;99.90
10536;DHT22;5316;49.538;8.352;2023-03-24T11:00:17;13.60;99.90
10536;DHT22;5316;49.538;8.352;2023-03-24T11:02:53;13.50;99.90
10536;DHT22;5316;49.538;8.352;2023-03-24T11:05:27;13.60;99.90
10536;DHT22;5316;49.538;8.352;2023-03-24T11:08:11;13.60;99.90
10536;DHT22;5316;49.538;8.352;2023-03-24T11:10:42;13.80;99.90
10536;DHT22;5316;49.538;8.352;2023-03-24T11:13:29;13.90;99.90
10536;DHT22;5316;49.538;8.352;2023-03-24T11:16:05;14.00;99.90
10536;DHT22;5316;49.538;8.352;2023-03-24T11:18:33;14.00;99.90
10536;DHT22;5316;49.538;8.352;2023-03-24T11:21:07;14.10;99.90
10536;DHT22;5316;49.538;8.352;2023-03-24T11:23:38;14.20;99.90
10536;DHT22;5316;49.538;8.352;2023-03-24T11:26:12;14.20;63.60
10536;DHT22;5316;49.538;8.352;2023-03-24T11:28:42;14.20;59.90
10536;DHT22;5316;49.538;8.352;2023-03-24T11:31:12;14.20;46.60
10536;DHT22;5316;49.538;8.352;2023-03-24T11:33:54;14.20;52.60
10536;DHT22;5316;49.538;8.352;2023-03-24T11:36:54;14.20;38.00
10536;DHT22;5316;49.538;8.352;2023-03-24T11:39:26;14.20;49.10
10536;DHT22;5316;49.538;8.352;2023-03-24T11:42:11;14.30;59.30
10536;DHT22;5316;49.538;8.352;2023-03-24T11:44:48;14.20;73.70
10536;DHT22;5316;49.538;8.352;2023-03-24T11:47:22;14.20;90.10
10536;DHT22;5316;49.538;8.352;2023-03-24T11:50:13;14.30;91.60
10536;DHT22;5316;49.538;8.352;2023-03-24T11:52:49;14.40;90.70
10536;DHT22;5316;49.538;8.352;2023-03-24T11:55:28;14.40;94.50
10536;DHT22;5316;49.538;8.352;2023-03-24T11:58:13;14.40;96.50
10536;DHT22;5316;49.538;8.352;2023-03-24T12:00:46;14.50;93.40
10536;DHT22;5316;49.538;8.352;2023-03-24T12:03:48;14.50;86.00
10536;DHT22;5316;49.538;8.352;2023-03-24T12:06:32;14.70;57.70
10536;DHT22;5316;49.538;8.352;2023-03-24T12:09:24;15.00;51.90
10536;DHT22;5316;49.538;8.352;2023-03-24T12:12:23;14.90;38.80
10536;DHT22;5316;49.538;8.352;2023-03-24T12:15:25;15.00;57.30
10536;DHT22;5316;49.538;8.352;2023-03-24T12:18:18;15.00;62.70
10536;DHT22;5316;49.538;8.352;2023-03-24T12:21:20;15.10;56.80
10536;DHT22;5316;49.538;8.352;2023-03-24T12:24:23;15.20;48.70
10536;DHT22;5316;49.538;8.352;2023-03-24T12:27:23;15.30;28.90
10536;DHT22;5316;49.538;8.352;2023-03-24T12:30:10;15.50;10.40
10536;DHT22;5316;49.538;8.352;2023-03-24T12:35:56;15.60;1.00
10536;DHT22;5316;49.538;8.352;2023-03-24T12:38:49;15.70;1.00
10536;DHT22;5316;49.538;8.352;2023-03-24T12:48:04;15.80;1.00
10536;DHT22;5316;49.538;8.352;2023-03-24T12:50:48;15.90;1.00
10536;DHT22;5316;49.538;8.352;2023-03-24T12:53:28;15.90;1.00
10536;DHT22;5316;49.538;8.352;2023-03-24T12:55:59;16.10;1.00
10536;DHT22;5316;49.538;8.352;2023-03-24T12:58:36;16.20;1.00
10536;DHT22;5316;49.538;8.352;2023-03-24T13:01:21;16.30;1.00
10536;DHT22;5316;49.538;8.352;2023-03-24T13:03:58;16.30;1.00
10536;DHT22;5316;49.538;8.352;2023-03-24T13:06:40;16.30;1.00
10536;DHT22;5316;49.538;8.352;2023-03-24T13:09:46;16.40;1.00
10536;DHT22;5316;49.538;8.352;2023-03-24T13:12:37;16.60;1.00
10536;DHT22;5316;49.538;8.352;2023-03-24T13:15:18;16.60;1.00
10536;DHT22;5316;49.538;8.352;2023-03-24T13:17:55;16.30;1.00
10536;DHT22;5316;49.538;8.352;2023-03-24T13:20:57;16.20;1.00
10536;DHT22;5316;49.538;8.352;2023-03-24T13:23:59;16.20;1.00
10536;DHT22;5316;49.538;8.352;2023-03-24T13:26:56;16.30;1.00
10536;DHT22;5316;49.538;8.352;2023-03-24T13:33:04;16.30;1.00
10536;DHT22;5316;49.538;8.352;2023-03-24T13:36:06;16.10;1.00
10536;DHT22;5316;49.538;8.352;2023-03-24T13:38:39;16.10;1.00
10536;DHT22;5316;49.538;8.352;2023-03-24T13:41:26;16.10;1.00
10536;DHT22;5316;49.538;8.352;2023-03-24T13:44:21;16.10;1.00
10536;DHT22;5316;49.538;8.352;2023-03-24T13:47:11;15.90;1.00
10536;DHT22;5316;49.538;8.352;2023-03-24T13:49:57;15.80;1.00
10536;DHT22;5316;49.538;8.352;2023-03-24T13:55:25;16.30;1.00
10536;DHT22;5316;49.538;8.352;2023-03-24T13:58:15;16.40;1.00
10536;DHT22;5316;49.538;8.352;2023-03-24T14:01:35;16.50;1.00
10536;DHT22;5316;49.538;8.352;2023-03-24T14:04:25;16.50;1.00
10536;DHT22;5316;49.538;8.352;2023-03-24T14:06:57;16.80;1.00
10536;DHT22;5316;49.538;8.352;2023-03-24T14:09:26;17.00;1.00
10536;DHT22;5316;49.538;8.352;2023-03-24T14:12:16;17.10;1.00
10536;DHT22;5316;49.538;8.352;2023-03-24T14:15:17;17.00;1.00
10536;DHT22;5316;49.538;8.352;2023-03-24T14:17:52;16.90;1.00
10536;DHT22;5316;49.538;8.352;2023-03-24T14:20:26;16.80;1.00
10536;DHT22;5316;49.538;8.352;2023-03-24T14:22:54;16.70;1.00
10536;DHT22;5316;49.538;8.352;2023-03-24T14:25:24;16.60;1.00
10536;DHT22;5316;49.538;8.352;2023-03-24T14:27:53;16.50;1.00
10536;DHT22;5316;49.538;8.352;2023-03-24T14:30:22;16.50;1.00
10536;DHT22;5316;49.538;8.352;2023-03-24T14:32:52;16.50;1.00
10536;DHT22;5316;49.538;8.352;2023-03-24T14:35:30;16.40;1.00
10536;DHT22;5316;49.538;8.352;2023-03-24T14:38:01;16.40;1.00
10536;DHT22;5316;49.538;8.352;2023-03-24T14:40:34;16.70;1.00
10536;DHT22;5316;49.538;8.352;2023-03-24T14:43:19;17.10;1.00
10536;DHT22;5316;49.538;8.352;2023-03-24T14:45:58;17.40;1.00
10536;DHT22;5316;49.538;8.352;2023-03-24T14:48:52;17.40;1.00
10536;DHT22;5316;49.538;8.352;2023-03-24T14:51:30;17.40;1.00
10536;DHT22;5316;49.538;8.352;2023-03-24T14:54:03;17.80;1.00
10536;DHT22;5316;49.538;8.352;2023-03-24T14:56:35;18.10;1.00
10536;DHT22;5316;49.538;8.352;2023-03-24T14:59:08;18.00;1.00
10536;DHT22;5316;49.538;8.352;2023-03-24T15:01:37;17.70;1.00
10536;DHT22;5316;49.538;8.352;2023-03-24T15:04:10;17.60;1.00
10536;DHT22;5316;49.538;8.352;2023-03-24T15:06:43;17.40;1.00
10536;DHT22;5316;49.538;8.352;2023-03-24T15:09:14;17.30;1.00
10536;DHT22;5316;49.538;8.352;2023-03-24T15:11:42;17.30;1.00
10536;DHT22;5316;49.538;8.352;2023-03-24T15:14:17;17.30;1.00
10536;DHT22;5316;49.538;8.352;2023-03-24T15:16:54;17.60;1.00
10536;DHT22;5316;49.538;8.352;2023-03-24T15:19:23;17.70;1.00
10536;DHT22;5316;49.538;8.352;2023-03-24T15:21:57;18.00;1.00
10536;DHT22;5316;49.538;8.352;2023-03-24T15:24:29;18.40;1.00
10536;DHT22;5316;49.538;8.352;2023-03-24T15:27:21;19.00;1.00
10536;DHT22;5316;49.538;8.352;2023-03-24T15:29:53;19.30;1.00
10536;DHT22;5316;49.538;8.352;2023-03-24T15:32:23;19.40;1.00
10536;DHT22;5316;49.538;8.352;2023-03-24T15:34:53;19.30;1.00
10536;DHT22;5316;49.538;8.352;2023-03-24T15:37:22;19.40;1.00
10536;DHT22;5316;49.538;8.352;2023-03-24T15:39:53;19.70;1.00
10536;DHT22;5316;49.538;8.352;2023-03-24T15:42:22;19.80;1.00
10536;DHT22;5316;49.538;8.352;2023-03-24T15:44:50;19.50;1.00
10536;DHT22;5316;49.538;8.352;2023-03-24T15:47:20;19.00;1.00
10536;DHT22;5316;49.538;8.352;2023-03-24T15:49:52;18.50;1.00
10536;DHT22;5316;49.538;8.352;2023-03-24T15:52:26;18.40;1.00
10536;DHT22;5316;49.538;8.352;2023-03-24T15:55:00;18.30;1.00
10536;DHT22;5316;49.538;8.352;2023-03-24T15:57:36;18.40;1.00
10536;DHT22;5316;49.538;8.352;2023-03-24T16:00:07;18.50;1.00
10536;DHT22;5316;49.538;8.352;2023-03-24T16:02:44;18.60;1.00
10536;DHT22;5316;49.538;8.352;2023-03-24T16:05:53;18.90;1.00
10536;DHT22;5316;49.538;8.352;2023-03-24T16:08:26;18.80;1.00
10536;DHT22;5316;49.538;8.352;2023-03-24T16:10:57;18.70;1.00
10536;DHT22;5316;49.538;8.352;2023-03-24T16:13:25;18.70;1.00
10536;DHT22;5316;49.538;8.352;2023-03-24T16:15:56;18.90;1.00
10536;DHT22;5316;49.538;8.352;2023-03-24T16:18:27;19.30;1.00
10536;DHT22;5316;49.538;8.352;2023-03-24T16:20:56;19.30;1.00
10536;DHT22;5316;49.538;8.352;2023-03-24T16:23:24;19.40;1.00
10536;DHT22;5316;49.538;8.352;2023-03-24T16:25:51;19.60;1.00
10536;DHT22;5316;49.538;8.352;2023-03-24T16:28:20;20.20;1.00
10536;DHT22;5316;49.538;8.352;2023-03-24T16:30:51;20.30;1.00
10536;DHT22;5316;49.538;8.352;2023-03-24T16:33:19;20.20;1.00
10536;DHT22;5316;49.538;8.352;2023-03-24T16:35:47;20.00;1.00
10536;DHT22;5316;49.538;8.352;2023-03-24T16:38:14;19.80;1.00
10536;DHT22;5316;49.538;8.352;2023-03-24T16:40:44;19.70;1.00
10536;DHT22;5316;49.538;8.352;2023-03-24T16:43:11;19.60;1.00
10536;DHT22;5316;49.538;8.352;2023-03-24T16:45:51;19.40;1.00
10536;DHT22;5316;49.538;8.352;2023-03-24T16:48:27;19.30;1.00
10536;DHT22;5316;49.538;8.352;2023-03-24T16:51:25;19.30;1.00
10536;DHT22;5316;49.538;8.352;2023-03-24T16:54:02;19.30;1.00
10536;DHT22;5316;49.538;8.352;2023-03-24T16:56:29;19.30;1.00
10536;DHT22;5316;49.538;8.352;2023-03-24T16:58:56;18.80;1.00
10536;DHT22;5316;49.538;8.352;2023-03-24T17:01:29;18.40;1.00
10536;DHT22;5316;49.538;8.352;2023-03-24T17:03:59;17.90;1.00
10536;DHT22;5316;49.538;8.352;2023-03-24T17:06:30;17.70;1.00
10536;DHT22;5316;49.538;8.352;2023-03-24T17:08:58;17.30;1.00
10536;DHT22;5316;49.538;8.352;2023-03-24T17:11:27;17.10;1.00
10536;DHT22;5316;49.538;8.352;2023-03-24T17:13:55;16.80;1.00
10536;DHT22;5316;49.538;8.352;2023-03-24T17:16:27;16.60;1.00
10536;DHT22;5316;49.538;8.352;2023-03-24T17:18:55;16.50;1.00
10536;DHT22;5316;49.538;8.352;2023-03-24T17:21:22;16.40;1.00
10536;DHT22;5316;49.538;8.352;2023-03-24T17:23:51;16.20;1.00
10536;DHT22;5316;49.538;8.352;2023-03-24T17:26:24;16.10;1.00
10536;DHT22;5316;49.538;8.352;2023-03-24T17:32:19;16.00;1.00
10536;DHT22;5316;49.538;8.352;2023-03-24T17:35:00;15.90;1.00
10536;DHT22;5316;49.538;8.352;2023-03-24T17:37:38;15.90;1.00
10536;DHT22;5316;49.538;8.352;2023-03-24T17:40:45;15.90;1.00
10536;DHT22;5316;49.538;8.352;2023-03-24T17:43:17;15.80;1.00
10536;DHT22;5316;49.538;8.352;2023-03-24T17:45:44;15.80;1.00
10536;DHT22;5316;49.538;8.352;2023-03-24T17:48:15;15.70;1.00
10536;DHT22;5316;49.538;8.352;2023-03-24T17:51:05;15.70;1.00
10536;DHT22;5316;49.538;8.352;2023-03-24T17:53:36;15.60;1.00
10536;DHT22;5316;49.538;8.352;2023-03-24T17:56:09;15.70;1.00
10536;DHT22;5316;49.538;8.352;2023-03-24T17:58:36;15.50;1.00
10536;DHT22;5316;49.538;8.352;2023-03-24T18:01:06;15.40;1.00
10536;DHT22;5316;49.538;8.352;2023-03-24T18:03:35;15.40;1.00
10536;DHT22;5316;49.538;8.352;2023-03-24T18:06:07;15.30;1.00
10536;DHT22;5316;49.538;8.352;2023-03-24T18:08:54;15.30;1.00
10536;DHT22;5316;49.538;8.352;2023-03-24T18:11:34;15.10;1.00
10536;DHT22;5316;49.538;8.352;2023-03-24T18:14:06;15.20;1.00
10536;DHT22;5316;49.538;8.352;2023-03-24T18:16:41;15.10;1.00
10536;DHT22;5316;49.538;8.352;2023-03-24T18:19:11;15.00;1.00
10536;DHT22;5316;49.538;8.352;2023-03-24T18:21:37;14.90;1.00
10536;DHT22;5316;49.538;8.352;2023-03-24T18:24:05;14.90;1.00
10536;DHT22;5316;49.538;8.352;2023-03-24T18:26:34;14.90;1.00
10536;DHT22;5316;49.538;8.352;2023-03-24T18:29:04;14.80;1.00
10536;DHT22;5316;49.538;8.352;2023-03-24T18:31:32;14.70;1.00
10536;DHT22;5316;49.538;8.352;2023-03-24T18:34:04;14.70;1.00
10536;DHT22;5316;49.538;8.352;2023-03-24T18:36:45;14.70;1.00
10536;DHT22;5316;49.538;8.352;2023-03-24T18:39:12;14.60;1.00
10536;DHT22;5316;49.538;8.352;2023-03-24T18:41:45;14.50;1.00
10536;DHT22;5316;49.538;8.352;2023-03-24T18:44:13;14.50;1.00
10536;DHT22;5316;49.538;8.352;2023-03-24T18:46:42;14.50;1.00
10536;DHT22;5316;49.538;8.352;2023-03-24T18:49:11;14.50;1.00
10536;DHT22;5316;49.538;8.352;2023-03-24T18:51:40;14.50;1.00
10536;DHT22;5316;49.538;8.352;2023-03-24T18:54:13;14.40;1.00
10536;DHT22;5316;49.538;8.352;2023-03-24T18:56:40;14.40;1.00
10536;DHT22;5316;49.538;8.352;2023-03-24T18:59:25;14.40;1.00
10536;DHT22;5316;49.538;8.352;2023-03-24T19:01:58;14.40;1.00
10536;DHT22;5316;49.538;8.352;2023-03-24T19:07:29;14.30;1.00
10536;DHT22;5316;49.538;8.352;2023-03-24T19:10:31;14.40;1.00
10536;DHT22;5316;49.538;8.352;2023-03-24T19:13:14;14.50;1.00
10536;DHT22;5316;49.538;8.352;2023-03-24T19:16:05;14.50;1.00
10536;DHT22;5316;49.538;8.352;2023-03-24T19:19:03;14.50;1.00
10536;DHT22;5316;49.538;8.352;2023-03-24T19:21:43;14.50;1.00
10536;DHT22;5316;49.538;8.352;2023-03-24T19:24:10;14.50;1.00
10536;DHT22;5316;49.538;8.352;2023-03-24T19:26:38;14.50;1.00
10536;DHT22;5316;49.538;8.352;2023-03-24T19:29:05;14.50;1.00
10536;DHT22;5316;49.538;8.352;2023-03-24T19:31:32;14.40;1.00
10536;DHT22;5316;49.538;8.352;2023-03-24T19:34:32;14.30;1.00
10536;DHT22;5316;49.538;8.352;2023-03-24T19:48:11;13.70;1.00